Time;durP1;ratioP1;P1;durP2;ratioP2;P2;SDS_P1;SDS_P2;PMS_P1;PMS_P2;Temp;Humidity;BMP_temperature;BMP_pressure;BME280_temperature;BME280_humidity;BME280_pressure;Samples;Min_cycle;Max_cycle;Signal;HPM_P1;HPM_P2
2021/12/12 13:01:17;;;;;;;;;;;17.50;53.80;;;;;;25483394;22;5018773;-87
2021/12/12 13:11:25;;;;;;;;;;;18.20;62.00;;;;;;25555228;22;77782;-87
2021/12/12 13:21:34;;;;;;;;;;;18.40;62.60;;;;;;25554637;22;78737;-87
2021/12/12 13:31:40;;;;;;;;;;;18.60;62.80;;;;;;25554554;22;78175;-87
2021/12/12 13:41:49;;;;;;;;;;;18.70;63.10;;;;;;25554477;22;76537;-87
2021/12/12 13:51:57;;;;;;;;;;;18.60;63.30;;;;;;25553869;22;77089;-87
2021/12/12 14:02:03;;;;;;;;;;;18.60;63.60;;;;;;25526056;22;78139;-87
2021/12/12 14:12:06;;;;;;;;;;;18.50;63.80;;;;;;25525513;22;74776;-87
2021/12/12 14:22:10;;;;;;;;;;;18.50;63.90;;;;;;25525841;22;78920;-87
2021/12/12 14:32:14;;;;;;;;;;;18.50;64.00;;;;;;25525545;22;75917;-87
2021/12/12 14:42:26;;;;;;;;;;;18.50;64.10;;;;;;25526314;22;77555;-87
2021/12/12 14:52:35;;;;;;;;;;;18.40;64.30;;;;;;25528245;22;75000;-87
2021/12/12 15:02:45;;;;;;;;;;;18.40;64.40;;;;;;25524023;22;75128;-87
2021/12/12 15:12:50;;;;;;;;;;;18.40;64.40;;;;;;25524338;22;76153;-87
2021/12/12 15:22:54;;;;;;;;;;;18.40;64.40;;;;;;25524486;22;75267;-87
2021/12/12 15:33:00;;;;;;;;;;;18.40;64.40;;;;;;25525160;22;77168;-87
2021/12/12 15:43:05;;;;;;;;;;;18.40;64.60;;;;;;25524560;22;78517;-87
2021/12/12 15:53:11;;;;;;;;;;;18.60;64.50;;;;;;25524322;22;76977;-87
2021/12/12 16:03:17;;;;;;;;;;;18.70;64.50;;;;;;25523741;22;77876;-87
2021/12/12 16:13:24;;;;;;;;;;;18.70;64.30;;;;;;25523290;22;74782;-87
2021/12/12 16:23:28;;;;;;;;;;;18.80;64.30;;;;;;25523051;22;76681;-87
2021/12/12 16:33:34;;;;;;;;;;;18.80;64.20;;;;;;25523593;22;76458;-87
2021/12/12 16:43:45;;;;;;;;;;;18.80;64.10;;;;;;25523944;22;75037;-88
2021/12/12 16:53:49;;;;;;;;;;;18.80;64.00;;;;;;25524221;22;75645;-88
2021/12/12 17:03:55;;;;;;;;;;;18.70;64.10;;;;;;25522813;22;75754;-88
2021/12/12 17:14:04;;;;;;;;;;;18.50;64.20;;;;;;25523073;22;75756;-88
2021/12/12 17:24:09;;;;;;;;;;;18.50;64.30;;;;;;25521385;22;77028;-88
2021/12/12 17:34:25;;;;;;;;;;;18.40;64.30;;;;;;25525732;22;76701;-88
2021/12/12 17:45:08;;;;;;;;;;;18.40;64.30;;;;;;25527640;22;78570;-87
2021/12/12 17:55:37;;;;;;;;;;;18.40;64.30;;;;;;25148779;22;77527;-87
2021/12/12 18:05:40;;;;;;;;;;;18.40;64.30;;;;;;25526752;22;78421;-87
2021/12/12 18:15:50;;;;;;;;;;;18.40;64.40;;;;;;25536630;22;76595;-86
2021/12/12 18:26:07;;;;;;;;;;;18.50;64.60;;;;;;25537038;22;76066;-87
2021/12/12 18:36:11;;;;;;;;;;;18.40;61.30;;;;;;25539496;22;74852;-91
2021/12/12 18:46:26;;;;;;;;;;;18.20;62.10;;;;;;25531806;22;75832;-91
2021/12/12 18:56:33;;;;;;;;;;;18.20;62.50;;;;;;25529550;22;75234;-92
2021/12/12 19:06:40;;;;;;;;;;;18.20;63.00;;;;;;25532023;22;78454;-90
2021/12/12 19:16:46;;;;;;;;;;;18.20;63.90;;;;;;25530218;22;75249;-92
2021/12/12 19:26:50;;;;;;;;;;;18.20;64.50;;;;;;25534670;22;76202;-89
2021/12/12 19:36:54;;;;;;;;;;;18.10;66.10;;;;;;25528600;22;74780;-85
2021/12/12 19:57:50;;;;;;;;;;;18.20;53.80;;;;;;25558933;22;75266;-89
2021/12/12 20:07:54;;;;;;;;;;;18.20;59.70;;;;;;25588779;22;77037;-86
2021/12/12 20:18:12;;;;;;;;;;;18.30;61.30;;;;;;25530632;22;74925;-89
2021/12/12 20:28:31;;;;;;;;;;;18.60;61.80;;;;;;25566381;22;76810;-85
2021/12/12 20:38:39;;;;;;;;;;;18.90;61.50;;;;;;25528606;22;75998;-89
2021/12/12 20:48:43;;;;;;;;;;;18.90;62.00;;;;;;25530801;22;75823;-90
2021/12/12 20:58:56;;;;;;;;;;;19.00;62.70;;;;;;25535459;22;76026;-86
2021/12/12 21:09:03;;;;;;;;;;;19.00;63.30;;;;;;25540367;22;77329;-85
2021/12/12 21:19:10;;;;;;;;;;;18.70;62.80;;;;;;25529252;22;75033;-88
2021/12/12 21:29:14;;;;;;;;;;;18.50;62.30;;;;;;25530368;22;74974;-86
2021/12/12 21:39:24;;;;;;;;;;;18.40;62.20;;;;;;25529613;22;75839;-86
2021/12/12 21:49:38;;;;;;;;;;;18.30;62.30;;;;;;25530687;22;75075;-85
2021/12/12 21:59:41;;;;;;;;;;;18.20;63.90;;;;;;25530518;22;76010;-86
2021/12/12 22:09:52;;;;;;;;;;;18.10;56.70;;;;;;25530328;22;76686;-86
2021/12/12 22:19:57;;;;;;;;;;;18.00;61.90;;;;;;25523331;22;75920;-85
2021/12/12 22:30:00;;;;;;;;;;;18.00;61.50;;;;;;25525687;22;75952;-87
2021/12/12 22:40:11;;;;;;;;;;;17.90;57.70;;;;;;25532434;22;75976;-91
2021/12/12 22:50:22;;;;;;;;;;;17.90;59.40;;;;;;25527285;22;75847;-88
2021/12/12 23:00:27;;;;;;;;;;;17.90;60.40;;;;;;25527807;22;76275;-87
2021/12/12 23:10:32;;;;;;;;;;;17.80;60.90;;;;;;25527701;22;77394;-87
2021/12/12 23:20:37;;;;;;;;;;;17.80;61.30;;;;;;25525300;22;77496;-86
2021/12/12 23:30:38;;;;;;;;;;;17.70;61.70;;;;;;25523357;22;75895;-88
2021/12/12 23:40:59;;;;;;;;;;;17.70;62.00;;;;;;25529398;22;75463;-90
2021/12/12 23:51:12;;;;;;;;;;;17.70;62.10;;;;;;25527757;22;75003;-87
